Time;durP1;ratioP1;P1;durP2;ratioP2;P2;SDS_P1;SDS_P2;PMS_P1;PMS_P2;Temp;Humidity;BMP_temperature;BMP_pressure;BME280_temperature;BME280_humidity;BME280_pressure;Samples;Min_cycle;Max_cycle;Signal;HPM_P1;HPM_P2
2022/05/17 00:01:05;;;;;;;8.13;6.50;;;15.50;99.90;;;;;;5056989;28;20087;-76
2022/05/17 00:03:32;;;;;;;11.20;6.57;;;15.50;99.90;;;;;;5057305;28;20049;-75
2022/05/17 00:05:59;;;;;;;10.52;6.55;;;15.30;99.90;;;;;;5056790;28;20060;-76
2022/05/17 00:08:28;;;;;;;12.48;7.65;;;15.30;99.90;;;;;;5057245;28;20037;-76
2022/05/17 00:10:56;;;;;;;11.00;7.50;;;15.20;99.90;;;;;;5056730;28;20053;-76
2022/05/17 00:13:23;;;;;;;9.20;6.72;;;15.20;99.90;;;;;;5039128;28;20044;-75
2022/05/17 00:15:52;;;;;;;10.18;7.20;;;15.30;99.90;;;;;;5039506;28;20393;-75
2022/05/17 00:18:21;;;;;;;10.68;6.78;;;15.30;99.90;;;;;;5039259;28;20086;-77
2022/05/17 00:20:48;;;;;;;10.70;6.78;;;15.30;99.90;;;;;;5039035;28;20049;-75
2022/05/17 00:23:16;;;;;;;11.57;6.50;;;15.30;99.90;;;;;;5055662;28;20057;-76
2022/05/17 00:25:47;;;;;;;10.63;6.47;;;15.20;99.90;;;;;;5038638;28;20052;-76
2022/05/17 00:28:15;;;;;;;8.82;6.38;;;15.20;99.90;;;;;;5056417;28;20086;-75
2022/05/17 00:30:42;;;;;;;11.85;6.63;;;15.20;99.90;;;;;;5056511;28;20049;-76
2022/05/17 00:33:10;;;;;;;9.02;6.43;;;15.20;99.90;;;;;;5056655;28;20044;-76
2022/05/17 00:35:37;;;;;;;9.10;6.30;;;15.20;99.90;;;;;;5041658;28;20056;-77
2022/05/17 00:38:05;;;;;;;14.10;7.22;;;15.20;99.90;;;;;;5056600;28;20052;-76
2022/05/17 00:40:33;;;;;;;10.45;7.07;;;15.10;99.90;;;;;;5056468;28;20045;-77
2022/05/17 00:43:02;;;;;;;15.27;7.35;;;15.10;99.90;;;;;;5056882;28;20060;-76
2022/05/17 00:45:29;;;;;;;10.40;6.75;;;15.00;99.90;;;;;;5056600;28;20056;-77
2022/05/17 00:48:04;;;;;;;12.20;6.32;;;15.00;99.90;;;;;;5058369;28;20124;-78
2022/05/17 00:50:35;;;;;;;10.65;6.78;;;15.00;99.90;;;;;;5057836;28;20128;-77
2022/05/17 00:53:06;;;;;;;9.93;6.43;;;15.00;99.90;;;;;;5056416;28;20056;-78
2022/05/17 00:55:38;;;;;;;9.20;6.63;;;14.90;99.90;;;;;;5058196;28;20045;-78
2022/05/17 00:58:12;;;;;;;8.30;6.75;;;14.90;99.90;;;;;;5058258;28;20048;-78
2022/05/17 01:00:44;;;;;;;12.18;6.85;;;14.90;99.90;;;;;;5056577;28;20033;-77
2022/05/17 01:03:15;;;;;;;13.43;6.57;;;15.00;99.90;;;;;;5073292;28;20029;-76
2022/05/17 01:05:45;;;;;;;8.45;6.22;;;15.00;99.90;;;;;;5063718;28;20044;-76
2022/05/17 01:08:15;;;;;;;9.88;6.80;;;15.00;99.90;;;;;;5080479;28;20033;-77
2022/05/17 01:10:42;;;;;;;10.07;7.03;;;15.00;99.90;;;;;;5062660;28;20109;-76
2022/05/17 01:15:57;;;;;;;10.52;7.70;;;15.00;99.90;;;;;;5058180;28;20049;-76
2022/05/17 01:18:25;;;;;;;8.90;6.75;;;15.00;99.90;;;;;;5055551;28;20068;-75
2022/05/17 01:20:53;;;;;;;10.07;6.95;;;14.90;99.90;;;;;;5055435;28;20132;-75
2022/05/17 01:23:22;;;;;;;9.40;7.15;;;14.80;99.90;;;;;;5054724;28;20075;-76
2022/05/17 01:25:49;;;;;;;9.20;7.05;;;14.70;99.90;;;;;;5054880;28;20063;-76
2022/05/17 01:28:21;;;;;;;10.25;7.95;;;14.70;99.90;;;;;;5055302;28;20043;-76
2022/05/17 01:30:48;;;;;;;9.60;6.70;;;14.70;99.90;;;;;;5038036;28;20048;-76
2022/05/17 01:33:17;;;;;;;9.55;7.00;;;14.70;99.90;;;;;;5055289;28;20056;-76
2022/05/17 01:35:44;;;;;;;9.15;6.55;;;14.80;99.90;;;;;;5055044;28;20394;-76
2022/05/17 01:38:12;;;;;;;8.85;6.45;;;14.70;99.90;;;;;;5047460;28;20063;-76
2022/05/17 01:40:41;;;;;;;10.80;6.68;;;14.60;99.90;;;;;;5054441;28;20091;-77
2022/05/17 01:43:09;;;;;;;7.35;5.85;;;14.60;99.90;;;;;;5054250;28;20036;-75
2022/05/17 01:45:37;;;;;;;6.75;6.03;;;14.60;99.90;;;;;;5055011;28;20039;-76
2022/05/17 01:48:05;;;;;;;8.20;6.32;;;14.60;99.90;;;;;;5036658;28;20048;-77
2022/05/17 01:50:33;;;;;;;7.85;6.68;;;14.50;99.90;;;;;;5055076;28;20120;-76
2022/05/17 01:53:00;;;;;;;11.30;7.00;;;14.60;99.90;;;;;;5036429;28;20504;-76
2022/05/17 01:55:28;;;;;;;10.75;7.22;;;14.50;99.90;;;;;;5054780;28;20128;-75
2022/05/17 01:57:56;;;;;;;9.38;6.53;;;14.50;99.90;;;;;;5054346;28;20536;-77
2022/05/17 02:00:26;;;;;;;14.65;7.80;;;14.40;99.90;;;;;;5054586;28;20045;-76
2022/05/17 02:02:54;;;;;;;9.68;7.25;;;14.40;99.90;;;;;;5052971;28;20048;-76
2022/05/17 02:05:23;;;;;;;8.98;7.13;;;14.30;99.90;;;;;;5054619;28;20515;-76
2022/05/17 02:07:51;;;;;;;8.43;6.75;;;14.30;99.90;;;;;;5054519;28;20075;-76
2022/05/17 02:10:19;;;;;;;11.00;6.95;;;14.20;99.90;;;;;;5054087;28;20512;-75
2022/05/17 02:12:46;;;;;;;11.18;6.97;;;14.20;99.90;;;;;;5054867;28;20045;-76
2022/05/17 02:15:15;;;;;;;10.18;6.28;;;14.20;99.90;;;;;;5054306;28;20049;-75
2022/05/17 02:17:44;;;;;;;8.60;6.47;;;14.20;99.90;;;;;;5054803;28;20059;-75
2022/05/17 02:20:11;;;;;;;12.13;7.13;;;14.10;99.90;;;;;;5054225;28;20037;-77
2022/05/17 02:22:39;;;;;;;12.32;7.25;;;14.20;99.90;;;;;;5053777;28;20396;-77
2022/05/17 02:25:08;;;;;;;13.23;6.60;;;14.10;99.90;;;;;;5054290;28;20504;-77
2022/05/17 02:27:36;;;;;;;9.63;7.22;;;14.10;99.90;;;;;;5053831;28;20047;-76
2022/05/17 02:30:04;;;;;;;8.25;6.32;;;14.20;99.90;;;;;;5054021;28;20067;-76
2022/05/17 02:32:33;;;;;;;9.05;6.60;;;14.20;99.90;;;;;;5053555;28;20045;-76
2022/05/17 02:35:01;;;;;;;11.43;6.43;;;14.30;99.90;;;;;;5053986;28;20041;-75
2022/05/17 02:37:28;;;;;;;8.32;6.50;;;14.30;99.90;;;;;;5054386;28;20037;-76
2022/05/17 02:39:55;;;;;;;7.78;6.15;;;14.30;99.90;;;;;;5054543;28;20052;-75
2022/05/17 02:42:23;;;;;;;9.60;5.75;;;14.30;99.90;;;;;;5036689;28;20044;-76
2022/05/17 02:44:50;;;;;;;9.20;6.20;;;14.30;99.90;;;;;;5054297;28;20508;-76
2022/05/17 02:47:18;;;;;;;9.57;6.70;;;14.30;99.90;;;;;;5055594;28;20528;-77
2022/05/17 02:49:47;;;;;;;9.63;6.05;;;14.30;99.90;;;;;;5036562;28;20055;-77
2022/05/17 02:52:15;;;;;;;7.13;6.32;;;14.30;99.90;;;;;;5054185;28;20503;-76
2022/05/17 02:54:43;;;;;;;9.27;6.50;;;14.20;99.90;;;;;;5054093;28;20044;-76
2022/05/17 02:57:10;;;;;;;10.43;6.47;;;14.20;99.90;;;;;;5038026;28;20076;-76
2022/05/17 02:59:37;;;;;;;9.20;6.53;;;14.10;99.90;;;;;;5064368;28;20408;-76
2022/05/17 03:02:05;;;;;;;8.95;6.75;;;14.20;99.90;;;;;;5065369;28;20076;-76
2022/05/17 03:04:33;;;;;;;10.00;7.25;;;14.20;99.90;;;;;;5057982;28;20037;-75
2022/05/17 03:07:02;;;;;;;10.60;7.13;;;14.20;99.90;;;;;;5054008;28;20409;-76
2022/05/17 03:09:29;;;;;;;11.98;6.95;;;14.10;99.90;;;;;;5054181;28;20041;-76
2022/05/17 03:11:57;;;;;;;9.63;7.10;;;14.00;99.90;;;;;;5053941;28;20412;-76
2022/05/17 03:14:24;;;;;;;11.68;7.45;;;14.00;99.90;;;;;;5052973;28;20053;-76
2022/05/17 03:16:52;;;;;;;9.57;7.72;;;14.10;99.90;;;;;;5053643;28;20055;-77
2022/05/17 03:19:19;;;;;;;11.35;9.75;;;13.90;99.90;;;;;;5053675;28;20045;-76
2022/05/17 03:21:49;;;;;;;22.65;17.73;;;13.90;99.90;;;;;;5053505;28;20051;-76
2022/05/17 03:24:18;;;;;;;28.60;23.33;;;13.90;99.90;;;;;;5055175;28;20041;-77
2022/05/17 03:26:45;;;;;;;20.13;16.23;;;14.00;99.90;;;;;;5057761;28;20140;-75
2022/05/17 03:29:13;;;;;;;20.92;14.52;;;14.00;99.90;;;;;;5063411;28;20507;-76
2022/05/17 03:31:41;;;;;;;17.45;12.35;;;14.00;99.90;;;;;;5062184;28;20047;-76
2022/05/17 03:34:10;;;;;;;19.98;13.85;;;14.00;99.90;;;;;;5065069;28;20037;-76
2022/05/17 03:36:37;;;;;;;11.77;8.90;;;14.00;99.90;;;;;;5048416;28;20045;-75
2022/05/17 03:39:04;;;;;;;11.93;7.97;;;14.00;99.90;;;;;;5063705;28;20037;-75
2022/05/17 03:41:34;;;;;;;11.73;7.30;;;14.00;99.90;;;;;;5058923;28;20507;-78
2022/05/17 03:44:01;;;;;;;9.48;7.57;;;14.00;99.90;;;;;;5057626;28;20049;-77
2022/05/17 03:46:29;;;;;;;8.77;7.63;;;14.00;99.90;;;;;;5057536;28;20048;-77
2022/05/17 03:48:57;;;;;;;10.40;7.72;;;14.00;99.90;;;;;;5057617;28;20037;-78
2022/05/17 03:51:24;;;;;;;9.13;7.10;;;14.00;99.90;;;;;;5058183;28;20489;-78
2022/05/17 03:53:51;;;;;;;11.15;7.28;;;14.10;99.90;;;;;;5057425;28;20041;-78
2022/05/17 03:56:19;;;;;;;11.00;7.00;;;14.20;99.90;;;;;;5057898;28;20045;-76
2022/05/17 03:58:48;;;;;;;10.05;7.28;;;14.30;99.90;;;;;;5056964;28;20049;-76
2022/05/17 04:01:16;;;;;;;10.13;6.55;;;14.50;99.90;;;;;;5056912;28;20045;-76
2022/05/17 04:03:43;;;;;;;12.30;6.65;;;14.60;99.90;;;;;;5055373;28;20052;-76
2022/05/17 04:06:11;;;;;;;11.90;7.00;;;14.70;99.90;;;;;;5049796;28;20051;-76
2022/05/17 04:08:40;;;;;;;10.73;7.00;;;14.60;99.90;;;;;;5056278;28;20033;-76
2022/05/17 04:11:08;;;;;;;10.23;6.88;;;14.70;99.90;;;;;;5056368;28;20112;-77
2022/05/17 04:13:35;;;;;;;12.63;7.47;;;14.70;99.90;;;;;;5055843;28;20041;-76
2022/05/17 04:16:05;;;;;;;11.32;6.97;;;14.80;99.90;;;;;;5056569;28;20041;-76
2022/05/17 04:18:33;;;;;;;12.23;6.93;;;14.90;99.90;;;;;;5056544;28;20041;-76
2022/05/17 04:21:01;;;;;;;13.00;6.55;;;15.30;99.90;;;;;;5056139;28;20037;-76
2022/05/17 04:23:29;;;;;;;17.98;6.40;;;16.00;99.90;;;;;;5056225;28;20048;-76
2022/05/17 04:25:57;;;;;;;20.45;6.60;;;16.50;99.90;;;;;;5056221;28;20412;-76
2022/05/17 04:28:24;;;;;;;10.07;6.15;;;16.90;99.90;;;;;;5056605;28;20045;-76
2022/05/17 04:30:52;;;;;;;14.98;6.25;;;16.90;99.90;;;;;;5056365;28;20048;-77
2022/05/17 04:33:21;;;;;;;8.23;6.15;;;17.50;99.90;;;;;;5055661;28;20505;-76
2022/05/17 04:35:48;;;;;;;11.43;6.15;;;17.90;99.90;;;;;;5059590;28;20071;-75
2022/05/17 04:38:16;;;;;;;12.45;6.15;;;17.80;99.90;;;;;;5059897;28;20045;-76
2022/05/17 04:40:44;;;;;;;12.35;6.40;;;17.90;99.90;;;;;;5059206;28;20043;-75
2022/05/17 04:43:12;;;;;;;7.72;5.97;;;18.70;99.90;;;;;;5044580;28;20045;-77
2022/05/17 04:45:41;;;;;;;8.90;5.97;;;19.50;99.90;;;;;;5059880;28;20070;-77
2022/05/17 04:48:09;;;;;;;12.07;5.75;;;20.10;99.90;;;;;;5058197;28;20040;-76
2022/05/17 04:50:38;;;;;;;8.68;5.65;;;19.80;99.90;;;;;;5055828;28;20055;-76
2022/05/17 04:53:06;;;;;;;9.10;5.82;;;19.20;99.90;;;;;;5055850;28;20489;-75
2022/05/17 04:55:34;;;;;;;9.95;5.57;;;18.70;99.90;;;;;;5055937;28;20047;-77
2022/05/17 04:58:02;;;;;;;14.82;6.43;;;18.30;99.90;;;;;;5055783;28;20051;-77
2022/05/17 05:00:29;;;;;;;13.13;6.10;;;18.00;99.90;;;;;;5055769;28;20045;-77
2022/05/17 05:02:57;;;;;;;11.43;5.85;;;17.90;99.90;;;;;;5053845;28;20460;-76
2022/05/17 05:05:25;;;;;;;11.57;5.75;;;18.00;99.90;;;;;;5049893;28;20119;-77
2022/05/17 05:07:54;;;;;;;8.70;5.38;;;18.60;99.90;;;;;;5035535;28;20488;-77
2022/05/17 05:10:21;;;;;;;10.13;6.00;;;19.50;99.90;;;;;;5055100;28;20033;-77
2022/05/17 05:12:49;;;;;;;10.48;6.00;;;19.80;99.90;;;;;;5055279;28;20052;-76
2022/05/17 05:15:17;;;;;;;10.50;6.72;;;19.80;99.90;;;;;;5055241;28;20041;-77
2022/05/17 05:17:45;;;;;;;12.38;7.18;;;19.80;99.90;;;;;;5055184;28;20060;-76
2022/05/17 05:20:15;;;;;;;17.70;7.80;;;20.50;99.90;;;;;;5055719;28;20041;-76
2022/05/17 05:22:42;;;;;;;9.23;5.97;;;21.10;99.90;;;;;;5055711;28;20060;-76
2022/05/17 05:25:12;;;;;;;7.75;6.18;;;21.40;99.90;;;;;;5055515;28;20049;-76
2022/05/17 05:27:41;;;;;;;9.45;6.20;;;21.00;99.90;;;;;;5037441;28;20055;-76
2022/05/17 05:30:13;;;;;;;11.32;5.85;;;20.90;99.90;;;;;;5037806;28;20443;-76
2022/05/17 05:32:40;;;;;;;10.85;6.45;;;20.80;99.90;;;;;;5055961;28;20045;-76
2022/05/17 05:35:09;;;;;;;19.65;8.77;;;20.40;99.90;;;;;;5055814;28;20128;-76
2022/05/17 05:37:37;;;;;;;15.88;9.05;;;20.00;99.90;;;;;;5055563;28;20415;-77
2022/05/17 05:40:05;;;;;;;15.80;8.63;;;19.60;99.90;;;;;;5055236;28;20059;-75
2022/05/17 05:42:34;;;;;;;12.65;7.22;;;19.20;99.90;;;;;;5055076;28;20049;-75
2022/05/17 05:45:02;;;;;;;17.15;8.43;;;18.90;99.90;;;;;;5055096;28;20069;-77
2022/05/17 05:47:29;;;;;;;11.55;8.85;;;18.70;99.90;;;;;;5037222;28;20045;-77
2022/05/17 05:49:57;;;;;;;14.25;9.55;;;18.60;99.90;;;;;;5055158;28;20115;-76
2022/05/17 05:52:26;;;;;;;15.20;8.73;;;18.40;99.90;;;;;;5054628;28;20040;-77
2022/05/17 05:54:53;;;;;;;14.23;7.47;;;18.20;99.90;;;;;;5055146;28;20033;-76
2022/05/17 05:57:21;;;;;;;19.83;10.07;;;18.10;99.90;;;;;;5054966;28;20056;-75
2022/05/17 05:59:50;;;;;;;11.88;8.77;;;18.00;99.90;;;;;;5055056;28;20399;-76
2022/05/17 06:02:18;;;;;;;14.95;9.25;;;17.90;99.90;;;;;;5054714;28;20072;-76
2022/05/17 06:04:45;;;;;;;18.77;12.57;;;17.90;99.90;;;;;;5054739;28;20055;-76
2022/05/17 06:07:12;;;;;;;18.77;9.88;;;17.90;99.90;;;;;;5053724;28;20045;-77
2022/05/17 06:09:40;;;;;;;16.10;10.05;;;17.90;99.90;;;;;;5054672;28;20087;-77
2022/05/17 06:12:08;;;;;;;13.57;9.55;;;17.90;99.90;;;;;;5054335;28;20123;-77
2022/05/17 06:14:35;;;;;;;20.60;9.73;;;17.80;99.90;;;;;;5054346;28;20044;-76
2022/05/17 06:17:05;;;;;;;26.73;14.90;;;17.90;99.90;;;;;;5054749;28;20051;-77
2022/05/17 06:19:34;;;;;;;16.80;10.73;;;17.80;99.90;;;;;;5054550;28;20481;-77
2022/05/17 06:22:01;;;;;;;22.80;13.55;;;17.90;99.90;;;;;;5054452;28;20132;-77
2022/05/17 06:24:29;;;;;;;19.35;12.52;;;17.90;99.90;;;;;;5063444;28;20132;-76
2022/05/17 06:26:57;;;;;;;19.90;14.25;;;17.80;99.90;;;;;;5062904;28;20079;-76
2022/05/17 06:29:25;;;;;;;24.98;14.23;;;17.80;99.90;;;;;;5065548;28;20387;-77
2022/05/17 06:31:52;;;;;;;19.10;12.52;;;17.80;99.90;;;;;;5054650;28;20526;-76
2022/05/17 06:34:22;;;;;;;23.27;10.80;;;17.90;99.90;;;;;;5054212;28;20056;-76
2022/05/17 06:36:50;;;;;;;23.85;11.70;;;18.10;99.90;;;;;;5054077;28;20484;-74
2022/05/17 06:39:17;;;;;;;19.63;10.38;;;18.30;99.90;;;;;;5054560;28;20041;-75
2022/05/17 06:41:45;;;;;;;14.82;10.50;;;18.40;99.90;;;;;;5054197;28;20132;-76
2022/05/17 06:44:13;;;;;;;28.77;10.65;;;18.70;99.90;;;;;;5052465;28;20045;-77
2022/05/17 06:46:40;;;;;;;24.83;11.00;;;19.10;99.90;;;;;;5054831;28;20045;-76
2022/05/17 06:49:10;;;;;;;16.05;9.93;;;19.30;99.90;;;;;;5053802;28;20064;-79
2022/05/17 06:51:40;;;;;;;27.55;10.60;;;19.50;99.90;;;;;;5055425;28;20072;-76
2022/05/17 06:54:08;;;;;;;14.13;9.10;;;19.80;99.90;;;;;;5057231;28;20037;-76
2022/05/17 06:56:36;;;;;;;14.07;9.15;;;20.10;1.00;;;;;;5053426;28;20063;-75
2022/05/17 06:59:05;;;;;;;15.75;9.20;;;20.30;1.00;;;;;;5042303;28;20041;-76
2022/05/17 07:01:33;;;;;;;19.55;11.93;;;20.40;1.00;;;;;;5053883;28;20501;-76
2022/05/17 07:04:00;;;;;;;25.98;14.18;;;20.60;1.00;;;;;;5053732;28;20496;-77
2022/05/17 07:06:28;;;;;;;29.95;14.73;;;20.70;1.00;;;;;;5053319;28;20280;-76
2022/05/17 07:08:57;;;;;;;32.78;15.57;;;21.00;99.90;;;;;;5035284;28;20045;-75
2022/05/17 07:14:10;;;;;;;21.30;11.57;;;21.20;1.00;;;;;;5061785;28;20041;-76
2022/05/17 07:16:37;;;;;;;19.35;10.75;;;21.20;99.90;;;;;;5065434;28;20045;-76
2022/05/17 07:19:05;;;;;;;24.42;12.10;;;21.60;99.90;;;;;;5066405;28;20059;-76
2022/05/17 07:21:33;;;;;;;22.73;11.63;;;21.90;99.90;;;;;;5039130;28;20052;-76
2022/05/17 07:24:01;;;;;;;16.60;9.85;;;22.50;16.60;;;;;;5056725;28;20132;-76
2022/05/17 07:26:29;;;;;;;20.90;9.15;;;22.90;98.50;;;;;;5055410;28;20063;-76
2022/05/17 07:28:56;;;;;;;15.10;9.93;;;23.00;1.00;;;;;;5053719;28;20049;-76
2022/05/17 07:31:24;;;;;;;19.55;10.43;;;23.40;1.00;;;;;;5054079;28;20040;-77
2022/05/17 07:33:51;;;;;;;16.67;9.95;;;23.90;99.90;;;;;;5053830;28;20399;-77
2022/05/17 07:36:18;;;;;;;15.60;8.45;;;24.30;99.90;;;;;;5053384;28;20550;-77
2022/05/17 07:38:47;;;;;;;17.58;8.52;;;24.60;99.90;;;;;;5053697;28;20044;-75
2022/05/17 07:41:16;;;;;;;14.35;7.97;;;24.20;99.90;;;;;;5053832;28;20067;-75
2022/05/17 07:43:44;;;;;;;14.57;7.45;;;24.40;98.70;;;;;;5053322;28;20040;-77
2022/05/17 07:46:11;;;;;;;14.43;8.50;;;24.70;13.80;;;;;;5053373;28;20120;-77
2022/05/17 07:48:38;;;;;;;12.60;7.47;;;24.90;1.00;;;;;;5054165;28;20424;-76
2022/05/17 07:51:06;;;;;;;13.52;8.30;;;24.90;1.00;;;;;;5053406;28;20381;-77
2022/05/17 07:53:34;;;;;;;16.23;9.48;;;24.80;1.00;;;;;;5053116;28;20106;-77
2022/05/17 07:56:03;;;;;;;18.50;9.32;;;24.90;1.00;;;;;;5053689;28;20044;-77
2022/05/17 07:58:31;;;;;;;14.90;11.30;;;24.90;1.00;;;;;;5054284;28;20412;-76
2022/05/17 08:00:59;;;;;;;26.38;12.82;;;25.00;1.00;;;;;;5051663;28;20045;-78
2022/05/17 08:03:26;;;;;;;24.73;18.10;;;25.20;1.00;;;;;;5053254;28;20045;-77
2022/05/17 08:05:54;;;;;;;18.80;10.07;;;25.20;1.00;;;;;;5053215;28;20045;-77
2022/05/17 08:08:21;;;;;;;16.25;10.57;;;25.00;1.00;;;;;;5053564;28;20106;-78
2022/05/17 08:10:50;;;;;;;15.32;8.68;;;25.10;1.00;;;;;;5049468;28;20056;-78
2022/05/17 08:13:19;;;;;;;12.27;9.13;;;25.20;1.00;;;;;;5049621;28;20040;-78
2022/05/17 08:15:48;;;;;;;15.93;8.90;;;25.70;1.00;;;;;;5053515;28;20053;-77
2022/05/17 08:18:16;;;;;;;25.55;11.07;;;25.90;94.70;;;;;;5054314;28;20454;-77
2022/05/17 08:20:44;;;;;;;21.58;11.52;;;26.00;1.00;;;;;;5057262;28;20041;-77
2022/05/17 08:23:12;;;;;;;16.30;10.38;;;25.40;99.90;;;;;;5056801;28;20051;-77
2022/05/17 08:28:25;;;;;;;18.40;11.95;;;25.10;1.00;;;;;;5037870;28;20091;-77
2022/05/17 08:30:54;;;;;;;20.27;11.38;;;25.30;1.00;;;;;;5053193;28;20037;-76
2022/05/17 08:33:23;;;;;;;16.65;12.20;;;25.40;1.00;;;;;;5056737;28;20045;-75
2022/05/17 08:35:54;;;;;;;20.35;9.55;;;25.60;1.00;;;;;;5056146;28;20451;-76
2022/05/17 08:38:24;;;;;;;15.63;9.93;;;25.50;1.00;;;;;;5057840;28;20044;-76
2022/05/17 08:40:58;;;;;;;12.75;10.43;;;25.20;1.00;;;;;;5056319;28;20045;-77
2022/05/17 08:43:31;;;;;;;26.20;16.60;;;25.10;1.00;;;;;;5056516;28;20056;-77
2022/05/17 08:46:09;;;;;;;30.50;17.90;;;25.00;9.20;;;;;;5056160;28;20507;-77
2022/05/17 08:48:45;;;;;;;19.50;11.98;;;24.90;46.20;;;;;;5055750;28;20132;-77
2022/05/17 08:51:17;;;;;;;21.15;10.90;;;25.10;59.40;;;;;;5056181;28;20424;-76
2022/05/17 08:53:45;;;;;;;25.92;12.15;;;25.00;96.60;;;;;;5056436;28;20069;-77
2022/05/17 08:56:16;;;;;;;13.82;10.07;;;25.00;99.90;;;;;;5056345;28;20132;-77
2022/05/17 08:58:46;;;;;;;16.13;10.27;;;25.20;99.90;;;;;;5055929;28;20055;-77
2022/05/17 09:01:24;;;;;;;16.95;11.25;;;25.00;99.90;;;;;;5039106;28;20077;-77
2022/05/17 09:04:11;;;;;;;16.88;10.90;;;25.10;1.00;;;;;;5058057;28;20072;-77
2022/05/17 09:06:46;;;;;;;11.52;9.60;;;25.20;1.00;;;;;;5058277;28;20087;-76
2022/05/17 09:09:21;;;;;;;13.07;8.90;;;25.30;1.00;;;;;;5070746;28;20122;-77
2022/05/17 09:11:54;;;;;;;15.88;9.98;;;25.40;1.00;;;;;;5075037;28;20059;-77
2022/05/17 09:14:24;;;;;;;16.98;10.10;;;25.60;1.00;;;;;;5077537;28;20048;-79
2022/05/17 09:17:02;;;;;;;18.27;9.15;;;25.80;1.00;;;;;;5077690;28;20108;-77
2022/05/17 09:19:29;;;;;;;13.25;9.43;;;26.00;70.60;;;;;;5051777;28;20053;-78
2022/05/17 09:21:59;;;;;;;13.60;9.60;;;26.00;17.40;;;;;;5043484;28;20132;-78
2022/05/17 09:24:30;;;;;;;20.30;10.77;;;26.00;1.00;;;;;;5060224;28;20080;-77
2022/05/17 09:27:04;;;;;;;20.02;10.18;;;26.20;1.00;;;;;;5057139;28;20056;-77
2022/05/17 09:29:37;;;;;;;31.75;10.93;;;26.40;1.00;;;;;;5056486;28;20045;-77
2022/05/17 09:32:11;;;;;;;15.90;10.05;;;26.40;1.00;;;;;;5056209;28;20091;-77
2022/05/17 09:34:41;;;;;;;19.63;11.07;;;26.50;1.00;;;;;;5056190;28;20047;-77
2022/05/17 09:37:13;;;;;;;14.30;10.15;;;26.70;1.00;;;;;;5056826;28;20420;-76
2022/05/17 09:39:49;;;;;;;13.70;10.32;;;26.70;1.00;;;;;;5056316;28;20044;-79
2022/05/17 09:42:24;;;;;;;13.70;10.70;;;26.70;1.00;;;;;;5035801;28;20045;-78
2022/05/17 09:44:56;;;;;;;14.80;12.65;;;26.60;1.00;;;;;;5056332;28;20120;-77
2022/05/17 09:47:31;;;;;;;18.98;11.68;;;26.80;1.00;;;;;;5056152;28;20154;-78
2022/05/17 09:52:59;;;;;;;12.38;10.23;;;26.90;1.00;;;;;;5039258;28;20133;-79
2022/05/17 09:55:29;;;;;;;14.50;11.60;;;26.70;1.00;;;;;;5057476;28;20041;-78
2022/05/17 09:58:00;;;;;;;17.58;11.10;;;26.80;1.00;;;;;;5049127;28;20071;-79
2022/05/17 10:00:31;;;;;;;14.50;10.68;;;27.00;1.00;;;;;;5059869;28;20051;-79
2022/05/17 10:03:02;;;;;;;14.80;10.85;;;27.00;1.00;;;;;;5057369;28;20526;-78
2022/05/17 10:05:45;;;;;;;15.25;10.70;;;26.90;1.00;;;;;;5065142;28;20047;-78
2022/05/17 10:08:32;;;;;;;22.02;13.13;;;27.00;1.00;;;;;;5042486;28;20073;-78
2022/05/17 10:11:22;;;;;;;14.40;10.32;;;27.10;1.00;;;;;;5056720;28;20045;-77
2022/05/17 10:13:59;;;;;;;12.88;9.70;;;27.10;1.00;;;;;;5050387;28;20091;-77
2022/05/17 10:16:34;;;;;;;11.02;7.95;;;27.30;1.00;;;;;;5054950;28;20045;-78
2022/05/17 10:19:07;;;;;;;11.75;8.43;;;27.30;1.00;;;;;;5057139;28;20047;-78
2022/05/17 10:21:41;;;;;;;12.88;9.10;;;27.10;1.00;;;;;;5056846;28;20036;-77
2022/05/17 10:24:18;;;;;;;11.63;10.35;;;27.10;1.00;;;;;;5057167;28;20045;-78
2022/05/17 10:26:59;;;;;;;11.10;7.90;;;27.30;1.00;;;;;;5056834;28;20053;-78
2022/05/17 10:29:36;;;;;;;11.07;8.15;;;27.40;1.00;;;;;;5058060;28;20056;-77
2022/05/17 10:32:09;;;;;;;14.27;9.35;;;27.50;1.00;;;;;;5056746;28;20065;-78
2022/05/17 10:34:45;;;;;;;10.35;7.90;;;27.80;1.00;;;;;;5056430;28;20074;-78
2022/05/17 10:37:18;;;;;;;12.13;8.82;;;28.30;1.00;;;;;;5055716;28;20067;-78
2022/05/17 10:39:51;;;;;;;13.02;8.80;;;28.60;1.00;;;;;;5056169;28;20094;-79
2022/05/17 10:42:20;;;;;;;9.95;7.28;;;28.60;1.00;;;;;;5056325;28;20044;-78
2022/05/17 10:44:50;;;;;;;14.65;7.75;;;28.80;1.00;;;;;;5056700;28;20060;-77
2022/05/17 10:47:28;;;;;;;13.45;8.23;;;28.40;1.00;;;;;;5054615;28;20040;-78
2022/05/17 10:50:13;;;;;;;11.55;7.80;;;28.20;17.90;;;;;;5054764;28;20052;-78
2022/05/17 10:52:58;;;;;;;9.98;8.00;;;28.00;1.00;;;;;;5054826;28;20047;-78
2022/05/17 10:55:36;;;;;;;11.98;8.98;;;27.90;1.00;;;;;;5054482;28;20047;-77
2022/05/17 10:58:11;;;;;;;11.88;8.20;;;28.00;1.00;;;;;;5036380;28;20044;-77
2022/05/17 11:00:42;;;;;;;10.87;7.37;;;28.20;1.00;;;;;;5053674;28;20128;-77
2022/05/17 11:03:37;;;;;;;14.95;8.80;;;28.30;1.00;;;;;;5053965;28;20043;-77
2022/05/17 11:06:19;;;;;;;13.40;8.05;;;28.40;99.90;;;;;;5053948;28;20041;-78
2022/05/17 11:08:55;;;;;;;14.82;8.85;;;28.70;99.90;;;;;;5057934;28;20381;-77
2022/05/17 11:11:37;;;;;;;10.30;7.55;;;28.90;99.90;;;;;;5056048;28;20037;-77
2022/05/17 11:14:09;;;;;;;15.02;9.05;;;29.00;99.90;;;;;;5054263;28;20048;-78
2022/05/17 11:16:40;;;;;;;12.07;9.95;;;28.90;99.90;;;;;;5054573;28;20087;-78
2022/05/17 11:19:12;;;;;;;13.23;8.07;;;28.90;1.00;;;;;;5054930;28;20041;-77
2022/05/17 11:21:48;;;;;;;10.93;8.27;;;28.70;99.90;;;;;;5053517;28;20427;-78
2022/05/17 11:24:29;;;;;;;9.38;7.68;;;28.40;99.90;;;;;;5054549;28;20455;-78
2022/05/17 11:27:18;;;;;;;8.65;7.68;;;27.80;99.90;;;;;;5055293;28;20067;-77
2022/05/17 11:30:07;;;;;;;8.73;7.50;;;27.40;46.00;;;;;;5046325;28;20053;-78
2022/05/17 11:32:36;;;;;;;10.25;8.30;;;27.10;1.00;;;;;;5062339;28;20068;-76
2022/05/17 11:35:05;;;;;;;8.70;7.78;;;26.80;1.00;;;;;;5067639;28;20140;-77
2022/05/17 11:37:53;;;;;;;12.50;7.78;;;26.50;1.00;;;;;;5055530;28;20358;-78
2022/05/17 11:40:55;;;;;;;11.00;7.90;;;26.20;1.00;;;;;;5055005;28;20059;-79
2022/05/17 11:43:48;;;;;;;27.23;19.00;;;26.00;1.00;;;;;;5050020;28;20061;-79
2022/05/17 11:46:45;;;;;;;17.85;10.23;;;26.00;1.00;;;;;;5055546;28;20052;-78
2022/05/17 11:52:32;;;;;;;19.05;9.32;;;25.80;1.00;;;;;;5046684;28;20045;-75
2022/05/17 11:55:04;;;;;;;14.30;10.43;;;25.70;6.40;;;;;;5058725;28;20049;-79
2022/05/17 11:58:09;;;;;;;15.68;8.95;;;25.60;99.90;;;;;;5059646;28;20064;-76
2022/05/17 12:00:48;;;;;;;10.55;8.20;;;25.40;99.90;;;;;;5042788;28;20058;-78
2022/05/17 12:03:52;;;;;;;12.60;8.30;;;25.40;99.90;;;;;;5057698;28;20132;-78
2022/05/17 12:07:04;;;;;;;12.80;8.68;;;25.30;99.90;;;;;;5059119;28;20060;-77
2022/05/17 12:09:35;;;;;;;14.95;7.95;;;25.30;99.90;;;;;;5045902;28;20095;-79
2022/05/17 12:12:27;;;;;;;7.55;6.80;;;25.10;99.90;;;;;;5058911;28;20044;-77
2022/05/17 12:15:31;;;;;;;8.77;7.43;;;25.40;99.90;;;;;;5061606;28;20048;-79
2022/05/17 12:18:09;;;;;;;40.92;9.13;;;25.80;75.70;;;;;;5045703;28;20057;-77
2022/05/17 12:20:48;;;;;;;8.50;7.60;;;26.30;1.00;;;;;;5044063;28;20044;-78
2022/05/17 12:23:21;;;;;;;11.45;8.93;;;26.70;1.00;;;;;;5058145;28;20033;-78
2022/05/17 12:25:57;;;;;;;12.00;7.40;;;26.90;1.00;;;;;;5058908;28;20339;-78
2022/05/17 12:28:32;;;;;;;9.77;7.65;;;27.40;1.00;;;;;;5057520;28;20069;-79
2022/05/17 12:31:02;;;;;;;20.13;8.15;;;27.70;1.00;;;;;;5060236;28;20060;-76
2022/05/17 12:33:32;;;;;;;9.55;6.97;;;27.50;1.00;;;;;;5059464;28;20040;-79
2022/05/17 12:36:15;;;;;;;15.48;9.07;;;27.70;1.00;;;;;;5059098;28;20044;-78
2022/05/17 12:44:20;;;;;;;9.25;6.93;;;27.30;1.00;;;;;;5038816;28;20040;-78
2022/05/17 12:46:50;;;;;;;13.40;7.22;;;27.20;1.00;;;;;;5037899;28;20111;-77
2022/05/17 12:49:21;;;;;;;10.35;6.85;;;27.20;1.00;;;;;;5037155;28;20077;-78
2022/05/17 12:51:59;;;;;;;12.48;6.82;;;26.90;1.00;;;;;;5056253;28;20047;-76
2022/05/17 12:54:29;;;;;;;11.02;6.88;;;26.90;1.00;;;;;;5056850;28;20413;-78
2022/05/17 12:57:04;;;;;;;8.98;6.43;;;27.30;1.00;;;;;;5058099;28;20403;-77
2022/05/17 12:59:38;;;;;;;11.48;6.20;;;27.50;1.00;;;;;;5057609;28;20045;-78
2022/05/17 13:02:06;;;;;;;11.05;6.70;;;27.80;1.00;;;;;;5039785;28;20091;-80
2022/05/17 13:04:37;;;;;;;10.32;6.35;;;27.80;1.00;;;;;;5038960;28;20049;-77
2022/05/17 13:07:13;;;;;;;9.25;6.20;;;26.90;1.00;;;;;;5058072;28;20048;-78
2022/05/17 13:09:53;;;;;;;;;;;26.80;1.00;;;;;;5058083;28;20041;-78
2022/05/17 13:12:20;;;;;;;9.13;5.80;;;27.00;1.00;;;;;;5057026;28;19920;-78
2022/05/17 13:14:50;;;;;;;8.93;6.13;;;26.90;1.00;;;;;;5056423;28;20055;-77
2022/05/17 13:17:22;;;;;;;10.30;6.57;;;27.00;1.00;;;;;;5057792;28;20049;-77
2022/05/17 13:19:51;;;;;;;11.70;7.05;;;27.00;1.00;;;;;;5057567;28;20041;-77